sensor_id;sensor_type;location;lat;lon;timestamp;P1;durP1;ratioP1;P2;durP2;ratioP2
67737;SDS011;54534;43.612;1.572;2022-12-29T00:01:28;6.83;;;2.63;;
67737;SDS011;54534;43.612;1.572;2022-12-29T00:03:53;6.13;;;2.93;;
67737;SDS011;54534;43.612;1.572;2022-12-29T00:06:19;8.03;;;3.30;;
67737;SDS011;54534;43.612;1.572;2022-12-29T00:08:44;7.43;;;3.20;;
67737;SDS011;54534;43.612;1.572;2022-12-29T00:11:11;5.77;;;3.47;;
67737;SDS011;54534;43.612;1.572;2022-12-29T00:13:38;7.83;;;3.43;;
67737;SDS011;54534;43.612;1.572;2022-12-29T00:16:22;9.97;;;2.93;;
67737;SDS011;54534;43.612;1.572;2022-12-29T00:18:49;5.00;;;2.80;;
67737;SDS011;54534;43.612;1.572;2022-12-29T00:21:15;6.40;;;3.20;;
67737;SDS011;54534;43.612;1.572;2022-12-29T00:24:00;8.53;;;3.40;;
67737;SDS011;54534;43.612;1.572;2022-12-29T00:26:46;4.90;;;3.10;;
67737;SDS011;54534;43.612;1.572;2022-12-29T00:29:33;6.17;;;2.90;;
67737;SDS011;54534;43.612;1.572;2022-12-29T00:32:16;4.63;;;2.63;;
67737;SDS011;54534;43.612;1.572;2022-12-29T00:35:00;5.70;;;3.33;;
67737;SDS011;54534;43.612;1.572;2022-12-29T00:37:41;4.90;;;2.87;;
67737;SDS011;54534;43.612;1.572;2022-12-29T00:40:27;5.13;;;2.60;;
67737;SDS011;54534;43.612;1.572;2022-12-29T00:43:11;6.20;;;3.33;;
67737;SDS011;54534;43.612;1.572;2022-12-29T00:45:55;6.10;;;3.67;;
67737;SDS011;54534;43.612;1.572;2022-12-29T00:48:20;4.80;;;3.00;;
67737;SDS011;54534;43.612;1.572;2022-12-29T00:51:04;5.67;;;3.17;;
67737;SDS011;54534;43.612;1.572;2022-12-29T00:53:30;4.17;;;3.10;;
67737;SDS011;54534;43.612;1.572;2022-12-29T00:55:55;4.63;;;3.00;;
67737;SDS011;54534;43.612;1.572;2022-12-29T00:58:20;3.30;;;2.97;;
67737;SDS011;54534;43.612;1.572;2022-12-29T01:00:46;5.63;;;3.13;;
67737;SDS011;54534;43.612;1.572;2022-12-29T01:03:11;5.83;;;2.80;;
67737;SDS011;54534;43.612;1.572;2022-12-29T01:05:36;5.23;;;3.53;;
67737;SDS011;54534;43.612;1.572;2022-12-29T01:08:02;5.33;;;3.13;;
67737;SDS011;54534;43.612;1.572;2022-12-29T01:10:28;4.63;;;3.07;;
67737;SDS011;54534;43.612;1.572;2022-12-29T01:12:53;6.10;;;2.83;;
67737;SDS011;54534;43.612;1.572;2022-12-29T01:15:19;3.70;;;2.70;;
67737;SDS011;54534;43.612;1.572;2022-12-29T01:17:44;3.23;;;2.53;;
67737;SDS011;54534;43.612;1.572;2022-12-29T01:20:10;5.90;;;2.80;;
67737;SDS011;54534;43.612;1.572;2022-12-29T01:22:36;10.57;;;4.13;;
67737;SDS011;54534;43.612;1.572;2022-12-29T01:25:01;3.33;;;2.87;;
67737;SDS011;54534;43.612;1.572;2022-12-29T01:27:27;6.33;;;3.00;;
67737;SDS011;54534;43.612;1.572;2022-12-29T01:29:53;3.50;;;3.13;;
67737;SDS011;54534;43.612;1.572;2022-12-29T01:32:18;5.03;;;2.90;;
67737;SDS011;54534;43.612;1.572;2022-12-29T01:34:44;3.43;;;2.60;;
67737;SDS011;54534;43.612;1.572;2022-12-29T01:37:09;3.67;;;2.67;;
67737;SDS011;54534;43.612;1.572;2022-12-29T01:39:34;3.03;;;2.73;;
67737;SDS011;54534;43.612;1.572;2022-12-29T01:42:00;4.20;;;3.03;;
67737;SDS011;54534;43.612;1.572;2022-12-29T01:47:18;3.83;;;2.67;;
67737;SDS011;54534;43.612;1.572;2022-12-29T01:49:52;4.47;;;3.03;;
67737;SDS011;54534;43.612;1.572;2022-12-29T01:52:20;7.40;;;2.67;;
67737;SDS011;54534;43.612;1.572;2022-12-29T01:54:48;4.63;;;3.00;;
67737;SDS011;54534;43.612;1.572;2022-12-29T01:57:23;3.07;;;2.63;;
67737;SDS011;54534;43.612;1.572;2022-12-29T01:59:58;5.50;;;3.00;;
67737;SDS011;54534;43.612;1.572;2022-12-29T02:02:28;3.90;;;3.03;;
67737;SDS011;54534;43.612;1.572;2022-12-29T02:04:54;2.93;;;2.50;;
67737;SDS011;54534;43.612;1.572;2022-12-29T02:07:22;5.07;;;3.53;;
67737;SDS011;54534;43.612;1.572;2022-12-29T02:09:50;4.80;;;2.97;;
67737;SDS011;54534;43.612;1.572;2022-12-29T02:12:18;4.53;;;2.93;;
67737;SDS011;54534;43.612;1.572;2022-12-29T02:14:45;3.27;;;2.80;;
67737;SDS011;54534;43.612;1.572;2022-12-29T02:26:13;3.87;;;2.77;;
67737;SDS011;54534;43.612;1.572;2022-12-29T02:31:52;4.25;;;2.75;;
67737;SDS011;54534;43.612;1.572;2022-12-29T02:39:54;4.03;;;2.93;;
67737;SDS011;54534;43.612;1.572;2022-12-29T02:42:33;4.47;;;2.90;;
67737;SDS011;54534;43.612;1.572;2022-12-29T02:50:32;4.07;;;2.43;;
67737;SDS011;54534;43.612;1.572;2022-12-29T02:53:04;3.70;;;2.63;;
67737;SDS011;54534;43.612;1.572;2022-12-29T02:55:32;3.47;;;2.97;;
67737;SDS011;54534;43.612;1.572;2022-12-29T03:09:36;3.10;;;2.70;;
67737;SDS011;54534;43.612;1.572;2022-12-29T03:12:19;4.77;;;2.53;;
67737;SDS011;54534;43.612;1.572;2022-12-29T03:14:56;3.00;;;2.50;;
67737;SDS011;54534;43.612;1.572;2022-12-29T03:17:58;3.43;;;2.70;;
67737;SDS011;54534;43.612;1.572;2022-12-29T03:20:38;4.63;;;3.10;;
67737;SDS011;54534;43.612;1.572;2022-12-29T03:23:10;3.10;;;2.80;;
67737;SDS011;54534;43.612;1.572;2022-12-29T03:25:43;3.53;;;2.70;;
67737;SDS011;54534;43.612;1.572;2022-12-29T03:28:14;3.17;;;2.93;;
67737;SDS011;54534;43.612;1.572;2022-12-29T03:30:48;3.10;;;2.70;;
67737;SDS011;54534;43.612;1.572;2022-12-29T03:33:14;3.73;;;3.27;;
67737;SDS011;54534;43.612;1.572;2022-12-29T03:35:44;4.20;;;2.60;;
67737;SDS011;54534;43.612;1.572;2022-12-29T03:38:21;4.70;;;2.90;;
67737;SDS011;54534;43.612;1.572;2022-12-29T03:40:52;3.13;;;2.43;;
67737;SDS011;54534;43.612;1.572;2022-12-29T03:43:21;4.53;;;3.00;;
67737;SDS011;54534;43.612;1.572;2022-12-29T03:45:47;3.20;;;2.67;;
67737;SDS011;54534;43.612;1.572;2022-12-29T03:48:13;5.33;;;2.60;;
67737;SDS011;54534;43.612;1.572;2022-12-29T03:50:38;2.73;;;2.53;;
67737;SDS011;54534;43.612;1.572;2022-12-29T03:53:04;4.17;;;2.60;;
67737;SDS011;54534;43.612;1.572;2022-12-29T03:55:29;3.73;;;2.60;;
67737;SDS011;54534;43.612;1.572;2022-12-29T03:57:54;5.07;;;2.90;;
67737;SDS011;54534;43.612;1.572;2022-12-29T04:00:20;4.00;;;2.40;;
67737;SDS011;54534;43.612;1.572;2022-12-29T04:02:45;3.17;;;2.67;;
67737;SDS011;54534;43.612;1.572;2022-12-29T04:05:11;2.87;;;2.67;;
67737;SDS011;54534;43.612;1.572;2022-12-29T04:07:37;4.83;;;3.10;;
67737;SDS011;54534;43.612;1.572;2022-12-29T04:10:02;6.17;;;2.90;;
67737;SDS011;54534;43.612;1.572;2022-12-29T04:12:28;4.47;;;2.93;;
67737;SDS011;54534;43.612;1.572;2022-12-29T04:14:53;3.37;;;2.67;;
67737;SDS011;54534;43.612;1.572;2022-12-29T04:17:19;3.13;;;2.83;;
67737;SDS011;54534;43.612;1.572;2022-12-29T04:19:44;4.07;;;2.83;;
67737;SDS011;54534;43.612;1.572;2022-12-29T04:22:10;4.03;;;2.70;;
67737;SDS011;54534;43.612;1.572;2022-12-29T04:24:36;3.50;;;2.40;;
67737;SDS011;54534;43.612;1.572;2022-12-29T04:27:02;3.40;;;2.93;;
67737;SDS011;54534;43.612;1.572;2022-12-29T04:29:27;3.10;;;2.80;;
67737;SDS011;54534;43.612;1.572;2022-12-29T04:31:53;4.17;;;3.00;;
67737;SDS011;54534;43.612;1.572;2022-12-29T04:34:18;2.93;;;2.60;;
67737;SDS011;54534;43.612;1.572;2022-12-29T04:36:44;2.70;;;2.50;;
67737;SDS011;54534;43.612;1.572;2022-12-29T04:39:09;5.67;;;2.60;;
67737;SDS011;54534;43.612;1.572;2022-12-29T04:41:34;3.13;;;2.70;;
67737;SDS011;54534;43.612;1.572;2022-12-29T04:44:00;5.00;;;2.90;;
67737;SDS011;54534;43.612;1.572;2022-12-29T04:46:25;4.47;;;2.87;;
67737;SDS011;54534;43.612;1.572;2022-12-29T04:48:51;4.03;;;2.97;;
67737;SDS011;54534;43.612;1.572;2022-12-29T04:51:16;5.70;;;2.90;;
67737;SDS011;54534;43.612;1.572;2022-12-29T04:53:41;2.73;;;2.40;;
67737;SDS011;54534;43.612;1.572;2022-12-29T04:56:07;5.00;;;3.37;;
67737;SDS011;54534;43.612;1.572;2022-12-29T04:58:34;3.93;;;2.70;;
67737;SDS011;54534;43.612;1.572;2022-12-29T05:00:59;3.00;;;2.70;;
67737;SDS011;54534;43.612;1.572;2022-12-29T05:03:25;3.90;;;2.50;;
67737;SDS011;54534;43.612;1.572;2022-12-29T05:05:52;3.63;;;2.50;;
67737;SDS011;54534;43.612;1.572;2022-12-29T05:08:19;3.22;;;2.65;;
67737;SDS011;54534;43.612;1.572;2022-12-29T05:10:45;3.40;;;3.00;;
67737;SDS011;54534;43.612;1.572;2022-12-29T05:13:10;4.63;;;3.20;;
67737;SDS011;54534;43.612;1.572;2022-12-29T05:15:36;3.77;;;2.40;;
67737;SDS011;54534;43.612;1.572;2022-12-29T05:18:01;5.37;;;2.90;;
67737;SDS011;54534;43.612;1.572;2022-12-29T05:20:27;4.03;;;3.13;;
67737;SDS011;54534;43.612;1.572;2022-12-29T05:22:52;4.37;;;2.90;;
67737;SDS011;54534;43.612;1.572;2022-12-29T05:25:17;3.20;;;2.47;;
67737;SDS011;54534;43.612;1.572;2022-12-29T05:27:43;4.20;;;2.70;;
67737;SDS011;54534;43.612;1.572;2022-12-29T05:30:08;3.87;;;2.80;;
67737;SDS011;54534;43.612;1.572;2022-12-29T05:32:34;7.10;;;3.00;;
67737;SDS011;54534;43.612;1.572;2022-12-29T05:35:00;2.87;;;2.40;;
67737;SDS011;54534;43.612;1.572;2022-12-29T05:37:25;2.43;;;2.23;;
67737;SDS011;54534;43.612;1.572;2022-12-29T05:39:50;5.00;;;3.13;;
67737;SDS011;54534;43.612;1.572;2022-12-29T05:42:16;3.23;;;2.93;;
67737;SDS011;54534;43.612;1.572;2022-12-29T05:44:41;4.87;;;2.77;;
67737;SDS011;54534;43.612;1.572;2022-12-29T05:47:07;3.40;;;2.50;;
67737;SDS011;54534;43.612;1.572;2022-12-29T05:49:32;5.07;;;2.60;;
67737;SDS011;54534;43.612;1.572;2022-12-29T05:51:58;3.03;;;2.40;;
67737;SDS011;54534;43.612;1.572;2022-12-29T05:54:23;4.90;;;2.63;;
67737;SDS011;54534;43.612;1.572;2022-12-29T05:56:49;3.60;;;2.53;;
67737;SDS011;54534;43.612;1.572;2022-12-29T05:59:14;4.37;;;3.00;;
67737;SDS011;54534;43.612;1.572;2022-12-29T06:01:39;3.60;;;2.57;;
67737;SDS011;54534;43.612;1.572;2022-12-29T06:04:05;3.40;;;2.60;;
67737;SDS011;54534;43.612;1.572;2022-12-29T06:06:30;2.83;;;2.50;;
67737;SDS011;54534;43.612;1.572;2022-12-29T06:08:56;2.83;;;2.50;;
67737;SDS011;54534;43.612;1.572;2022-12-29T06:11:21;3.77;;;2.33;;
67737;SDS011;54534;43.612;1.572;2022-12-29T06:13:46;3.03;;;2.67;;
67737;SDS011;54534;43.612;1.572;2022-12-29T06:16:12;4.57;;;3.00;;
67737;SDS011;54534;43.612;1.572;2022-12-29T06:18:37;3.10;;;2.60;;
67737;SDS011;54534;43.612;1.572;2022-12-29T06:21:03;2.73;;;2.50;;
67737;SDS011;54534;43.612;1.572;2022-12-29T06:23:30;6.00;;;2.80;;
67737;SDS011;54534;43.612;1.572;2022-12-29T06:25:56;12.63;;;3.23;;
67737;SDS011;54534;43.612;1.572;2022-12-29T06:28:22;5.53;;;2.73;;
67737;SDS011;54534;43.612;1.572;2022-12-29T06:30:48;8.70;;;2.90;;
67737;SDS011;54534;43.612;1.572;2022-12-29T06:33:13;4.33;;;2.50;;
67737;SDS011;54534;43.612;1.572;2022-12-29T06:35:39;6.37;;;3.20;;
67737;SDS011;54534;43.612;1.572;2022-12-29T06:38:06;6.97;;;2.80;;
67737;SDS011;54534;43.612;1.572;2022-12-29T06:40:31;5.80;;;2.47;;
67737;SDS011;54534;43.612;1.572;2022-12-29T06:42:57;3.77;;;2.77;;
67737;SDS011;54534;43.612;1.572;2022-12-29T06:45:22;5.80;;;3.00;;
67737;SDS011;54534;43.612;1.572;2022-12-29T06:47:48;6.17;;;2.43;;
67737;SDS011;54534;43.612;1.572;2022-12-29T06:50:13;6.97;;;3.30;;
67737;SDS011;54534;43.612;1.572;2022-12-29T06:52:38;7.37;;;2.70;;
67737;SDS011;54534;43.612;1.572;2022-12-29T06:55:04;3.97;;;2.70;;
67737;SDS011;54534;43.612;1.572;2022-12-29T06:57:30;4.13;;;2.60;;
67737;SDS011;54534;43.612;1.572;2022-12-29T06:59:55;6.03;;;2.80;;
67737;SDS011;54534;43.612;1.572;2022-12-29T07:02:21;3.73;;;2.73;;
67737;SDS011;54534;43.612;1.572;2022-12-29T07:04:46;7.67;;;3.07;;
67737;SDS011;54534;43.612;1.572;2022-12-29T07:07:12;4.83;;;3.07;;
67737;SDS011;54534;43.612;1.572;2022-12-29T07:09:37;3.23;;;2.83;;
67737;SDS011;54534;43.612;1.572;2022-12-29T07:12:03;5.23;;;3.00;;
67737;SDS011;54534;43.612;1.572;2022-12-29T07:14:28;5.27;;;3.20;;
67737;SDS011;54534;43.612;1.572;2022-12-29T07:16:54;3.23;;;2.87;;
67737;SDS011;54534;43.612;1.572;2022-12-29T07:19:19;5.53;;;3.27;;
67737;SDS011;54534;43.612;1.572;2022-12-29T07:21:45;3.80;;;3.30;;
67737;SDS011;54534;43.612;1.572;2022-12-29T07:24:10;6.27;;;3.33;;
67737;SDS011;54534;43.612;1.572;2022-12-29T07:26:36;7.10;;;3.17;;
67737;SDS011;54534;43.612;1.572;2022-12-29T07:29:02;5.87;;;3.20;;
67737;SDS011;54534;43.612;1.572;2022-12-29T07:31:28;6.90;;;3.43;;
67737;SDS011;54534;43.612;1.572;2022-12-29T07:33:54;3.43;;;3.13;;
67737;SDS011;54534;43.612;1.572;2022-12-29T07:36:19;5.30;;;3.33;;
67737;SDS011;54534;43.612;1.572;2022-12-29T07:38:44;4.37;;;3.13;;
67737;SDS011;54534;43.612;1.572;2022-12-29T07:41:10;4.57;;;2.90;;
67737;SDS011;54534;43.612;1.572;2022-12-29T07:43:35;7.70;;;2.83;;
67737;SDS011;54534;43.612;1.572;2022-12-29T07:46:01;8.30;;;3.20;;
67737;SDS011;54534;43.612;1.572;2022-12-29T07:48:26;10.43;;;3.43;;
67737;SDS011;54534;43.612;1.572;2022-12-29T07:50:52;8.77;;;3.43;;
67737;SDS011;54534;43.612;1.572;2022-12-29T07:53:17;15.67;;;4.00;;
67737;SDS011;54534;43.612;1.572;2022-12-29T07:55:43;17.23;;;3.97;;
67737;SDS011;54534;43.612;1.572;2022-12-29T07:58:08;19.47;;;3.70;;
67737;SDS011;54534;43.612;1.572;2022-12-29T08:00:34;23.13;;;5.43;;
67737;SDS011;54534;43.612;1.572;2022-12-29T08:02:59;14.53;;;3.70;;
67737;SDS011;54534;43.612;1.572;2022-12-29T08:05:25;14.87;;;3.37;;
67737;SDS011;54534;43.612;1.572;2022-12-29T08:07:50;15.80;;;3.63;;
67737;SDS011;54534;43.612;1.572;2022-12-29T08:10:16;12.23;;;4.00;;
67737;SDS011;54534;43.612;1.572;2022-12-29T08:12:42;14.87;;;3.33;;
67737;SDS011;54534;43.612;1.572;2022-12-29T08:15:09;15.93;;;3.00;;
67737;SDS011;54534;43.612;1.572;2022-12-29T08:17:35;10.17;;;3.53;;
67737;SDS011;54534;43.612;1.572;2022-12-29T08:20:01;18.27;;;3.40;;
67737;SDS011;54534;43.612;1.572;2022-12-29T08:22:27;20.60;;;3.63;;
67737;SDS011;54534;43.612;1.572;2022-12-29T08:24:53;12.83;;;3.20;;
67737;SDS011;54534;43.612;1.572;2022-12-29T08:27:18;12.00;;;3.13;;
67737;SDS011;54534;43.612;1.572;2022-12-29T08:29:44;9.67;;;3.10;;
67737;SDS011;54534;43.612;1.572;2022-12-29T08:32:09;11.60;;;4.23;;
67737;SDS011;54534;43.612;1.572;2022-12-29T08:34:35;9.47;;;3.43;;
67737;SDS011;54534;43.612;1.572;2022-12-29T08:37:00;16.00;;;3.53;;
67737;SDS011;54534;43.612;1.572;2022-12-29T08:39:26;10.93;;;3.17;;
67737;SDS011;54534;43.612;1.572;2022-12-29T08:41:52;9.03;;;2.80;;
67737;SDS011;54534;43.612;1.572;2022-12-29T08:44:17;5.87;;;3.17;;
67737;SDS011;54534;43.612;1.572;2022-12-29T08:46:42;11.93;;;3.13;;
67737;SDS011;54534;43.612;1.572;2022-12-29T08:49:08;9.03;;;2.90;;
67737;SDS011;54534;43.612;1.572;2022-12-29T08:51:33;12.60;;;3.93;;
67737;SDS011;54534;43.612;1.572;2022-12-29T08:53:59;7.73;;;2.87;;
67737;SDS011;54534;43.612;1.572;2022-12-29T08:56:25;10.53;;;2.17;;
67737;SDS011;54534;43.612;1.572;2022-12-29T08:58:51;7.27;;;2.80;;
67737;SDS011;54534;43.612;1.572;2022-12-29T09:01:17;10.53;;;3.07;;
67737;SDS011;54534;43.612;1.572;2022-12-29T09:03:43;9.87;;;2.73;;
67737;SDS011;54534;43.612;1.572;2022-12-29T09:06:08;8.93;;;3.67;;
67737;SDS011;54534;43.612;1.572;2022-12-29T09:08:34;6.47;;;2.83;;
67737;SDS011;54534;43.612;1.572;2022-12-29T09:11:07;9.83;;;2.43;;
67737;SDS011;54534;43.612;1.572;2022-12-29T09:13:34;15.03;;;3.33;;
67737;SDS011;54534;43.612;1.572;2022-12-29T09:16:00;5.57;;;2.97;;
67737;SDS011;54534;43.612;1.572;2022-12-29T09:18:25;8.10;;;2.87;;
67737;SDS011;54534;43.612;1.572;2022-12-29T09:20:58;9.33;;;2.53;;
67737;SDS011;54534;43.612;1.572;2022-12-29T09:23:24;6.13;;;3.10;;
67737;SDS011;54534;43.612;1.572;2022-12-29T09:25:50;8.83;;;2.97;;
67737;SDS011;54534;43.612;1.572;2022-12-29T09:28:15;5.83;;;3.33;;
67737;SDS011;54534;43.612;1.572;2022-12-29T09:30:41;5.40;;;2.73;;
67737;SDS011;54534;43.612;1.572;2022-12-29T09:33:13;6.73;;;3.00;;
67737;SDS011;54534;43.612;1.572;2022-12-29T09:35:42;6.23;;;2.73;;
67737;SDS011;54534;43.612;1.572;2022-12-29T09:38:09;5.65;;;2.75;;
67737;SDS011;54534;43.612;1.572;2022-12-29T09:40:35;6.27;;;3.00;;
67737;SDS011;54534;43.612;1.572;2022-12-29T09:46:40;5.23;;;2.70;;
67737;SDS011;54534;43.612;1.572;2022-12-29T09:51:24;6.27;;;2.40;;
67737;SDS011;54534;43.612;1.572;2022-12-29T09:53:56;5.53;;;2.67;;
67737;SDS011;54534;43.612;1.572;2022-12-29T09:56:25;5.53;;;2.60;;
67737;SDS011;54534;43.612;1.572;2022-12-29T09:59:13;5.87;;;2.50;;
67737;SDS011;54534;43.612;1.572;2022-12-29T10:04:27;4.70;;;3.30;;
67737;SDS011;54534;43.612;1.572;2022-12-29T10:07:03;6.27;;;2.70;;
67737;SDS011;54534;43.612;1.572;2022-12-29T10:09:45;5.33;;;2.70;;
67737;SDS011;54534;43.612;1.572;2022-12-29T10:15:38;4.80;;;2.73;;
67737;SDS011;54534;43.612;1.572;2022-12-29T10:21:04;3.97;;;2.53;;
67737;SDS011;54534;43.612;1.572;2022-12-29T10:23:44;4.83;;;2.50;;
67737;SDS011;54534;43.612;1.572;2022-12-29T10:26:15;6.40;;;3.20;;
67737;SDS011;54534;43.612;1.572;2022-12-29T10:31:22;6.53;;;2.60;;
67737;SDS011;54534;43.612;1.572;2022-12-29T10:33:53;4.87;;;2.47;;
67737;SDS011;54534;43.612;1.572;2022-12-29T10:36:39;4.40;;;2.80;;
67737;SDS011;54534;43.612;1.572;2022-12-29T10:39:14;9.03;;;3.50;;
67737;SDS011;54534;43.612;1.572;2022-12-29T10:41:46;9.33;;;2.83;;
67737;SDS011;54534;43.612;1.572;2022-12-29T10:44:16;5.73;;;2.30;;
67737;SDS011;54534;43.612;1.572;2022-12-29T10:46:44;8.10;;;2.73;;
67737;SDS011;54534;43.612;1.572;2022-12-29T10:49:20;5.17;;;2.50;;
67737;SDS011;54534;43.612;1.572;2022-12-29T10:51:46;7.90;;;2.67;;
67737;SDS011;54534;43.612;1.572;2022-12-29T10:59:21;11.63;;;3.17;;
67737;SDS011;54534;43.612;1.572;2022-12-29T11:01:51;3.83;;;2.33;;
67737;SDS011;54534;43.612;1.572;2022-12-29T11:06:53;6.97;;;3.40;;
67737;SDS011;54534;43.612;1.572;2022-12-29T11:09:21;7.20;;;3.00;;
67737;SDS011;54534;43.612;1.572;2022-12-29T11:11:52;5.00;;;2.63;;
67737;SDS011;54534;43.612;1.572;2022-12-29T11:14:18;7.70;;;2.60;;
67737;SDS011;54534;43.612;1.572;2022-12-29T11:17:01;7.00;;;3.03;;
67737;SDS011;54534;43.612;1.572;2022-12-29T11:19:29;5.70;;;2.60;;
67737;SDS011;54534;43.612;1.572;2022-12-29T11:22:12;8.33;;;2.83;;
67737;SDS011;54534;43.612;1.572;2022-12-29T11:24:46;6.50;;;2.60;;
67737;SDS011;54534;43.612;1.572;2022-12-29T11:27:22;7.43;;;2.47;;
67737;SDS011;54534;43.612;1.572;2022-12-29T11:29:50;8.00;;;2.50;;
67737;SDS011;54534;43.612;1.572;2022-12-29T11:32:18;4.43;;;2.20;;
67737;SDS011;54534;43.612;1.572;2022-12-29T11:34:51;12.37;;;2.83;;
67737;SDS011;54534;43.612;1.572;2022-12-29T11:37:30;7.23;;;2.27;;
67737;SDS011;54534;43.612;1.572;2022-12-29T11:45:06;5.53;;;2.73;;
67737;SDS011;54534;43.612;1.572;2022-12-29T11:47:35;6.45;;;2.63;;
67737;SDS011;54534;43.612;1.572;2022-12-29T11:50:02;10.57;;;2.93;;
67737;SDS011;54534;43.612;1.572;2022-12-29T11:52:32;4.33;;;2.87;;
67737;SDS011;54534;43.612;1.572;2022-12-29T11:55:01;8.10;;;3.33;;
67737;SDS011;54534;43.612;1.572;2022-12-29T11:57:29;7.20;;;2.97;;
67737;SDS011;54534;43.612;1.572;2022-12-29T11:59:58;7.55;;;3.78;;
67737;SDS011;54534;43.612;1.572;2022-12-29T12:07:42;33.47;;;13.30;;
67737;SDS011;54534;43.612;1.572;2022-12-29T12:10:12;25.43;;;11.00;;
67737;SDS011;54534;43.612;1.572;2022-12-29T12:12:51;25.00;;;10.13;;
67737;SDS011;54534;43.612;1.572;2022-12-29T12:15:37;28.10;;;10.17;;
67737;SDS011;54534;43.612;1.572;2022-12-29T12:20:45;17.73;;;7.57;;
67737;SDS011;54534;43.612;1.572;2022-12-29T12:26:04;20.27;;;6.87;;
67737;SDS011;54534;43.612;1.572;2022-12-29T12:28:40;19.53;;;6.87;;
67737;SDS011;54534;43.612;1.572;2022-12-29T12:34:05;13.00;;;5.10;;
67737;SDS011;54534;43.612;1.572;2022-12-29T12:45:32;20.33;;;7.80;;
67737;SDS011;54534;43.612;1.572;2022-12-29T12:48:15;16.43;;;6.43;;
67737;SDS011;54534;43.612;1.572;2022-12-29T13:04:16;11.00;;;5.63;;
67737;SDS011;54534;43.612;1.572;2022-12-29T13:07:01;13.60;;;5.50;;
67737;SDS011;54534;43.612;1.572;2022-12-29T13:09:41;15.10;;;6.03;;
67737;SDS011;54534;43.612;1.572;2022-12-29T13:12:41;11.53;;;4.77;;
67737;SDS011;54534;43.612;1.572;2022-12-29T13:18:52;12.60;;;4.83;;
67737;SDS011;54534;43.612;1.572;2022-12-29T13:24:19;9.60;;;4.50;;
67737;SDS011;54534;43.612;1.572;2022-12-29T13:37:45;7.93;;;3.67;;
67737;SDS011;54534;43.612;1.572;2022-12-29T13:40:16;9.73;;;4.97;;
67737;SDS011;54534;43.612;1.572;2022-12-29T13:42:47;9.10;;;3.87;;
67737;SDS011;54534;43.612;1.572;2022-12-29T13:45:15;9.30;;;4.17;;
67737;SDS011;54534;43.612;1.572;2022-12-29T13:47:49;9.17;;;3.80;;
67737;SDS011;54534;43.612;1.572;2022-12-29T13:50:28;10.37;;;3.60;;
67737;SDS011;54534;43.612;1.572;2022-12-29T14:03:53;12.87;;;4.13;;
67737;SDS011;54534;43.612;1.572;2022-12-29T14:06:29;9.87;;;3.47;;
67737;SDS011;54534;43.612;1.572;2022-12-29T14:09:00;9.30;;;4.07;;
67737;SDS011;54534;43.612;1.572;2022-12-29T14:11:30;6.57;;;3.73;;
67737;SDS011;54534;43.612;1.572;2022-12-29T14:13:56;7.77;;;4.07;;
67737;SDS011;54534;43.612;1.572;2022-12-29T14:16:24;5.70;;;3.10;;
67737;SDS011;54534;43.612;1.572;2022-12-29T14:18:53;7.33;;;3.87;;
67737;SDS011;54534;43.612;1.572;2022-12-29T14:21:22;6.33;;;3.33;;
67737;SDS011;54534;43.612;1.572;2022-12-29T14:23:56;7.07;;;3.73;;
67737;SDS011;54534;43.612;1.572;2022-12-29T14:26:45;13.90;;;4.37;;
67737;SDS011;54534;43.612;1.572;2022-12-29T14:29:56;7.30;;;3.43;;
67737;SDS011;54534;43.612;1.572;2022-12-29T14:34:50;12.10;;;4.53;;
67737;SDS011;54534;43.612;1.572;2022-12-29T14:42:50;13.37;;;4.47;;
67737;SDS011;54534;43.612;1.572;2022-12-29T14:53:00;7.40;;;4.10;;
67737;SDS011;54534;43.612;1.572;2022-12-29T14:55:36;10.93;;;3.95;;
67737;SDS011;54534;43.612;1.572;2022-12-29T14:58:05;7.77;;;3.87;;
67737;SDS011;54534;43.612;1.572;2022-12-29T15:00:37;9.13;;;4.07;;
67737;SDS011;54534;43.612;1.572;2022-12-29T15:03:17;9.77;;;4.07;;
67737;SDS011;54534;43.612;1.572;2022-12-29T15:05:48;9.80;;;3.77;;
67737;SDS011;54534;43.612;1.572;2022-12-29T15:08:18;8.03;;;3.93;;
67737;SDS011;54534;43.612;1.572;2022-12-29T15:10:54;6.70;;;3.85;;
67737;SDS011;54534;43.612;1.572;2022-12-29T15:13:24;9.33;;;4.37;;
67737;SDS011;54534;43.612;1.572;2022-12-29T15:15:57;10.63;;;4.20;;
67737;SDS011;54534;43.612;1.572;2022-12-29T15:18:26;6.47;;;3.97;;
67737;SDS011;54534;43.612;1.572;2022-12-29T15:21:04;7.07;;;3.57;;
67737;SDS011;54534;43.612;1.572;2022-12-29T15:23:32;13.10;;;4.20;;
67737;SDS011;54534;43.612;1.572;2022-12-29T15:26:06;11.70;;;3.97;;
67737;SDS011;54534;43.612;1.572;2022-12-29T15:28:52;8.03;;;3.93;;
67737;SDS011;54534;43.612;1.572;2022-12-29T15:31:19;11.37;;;4.10;;
67737;SDS011;54534;43.612;1.572;2022-12-29T15:33:47;9.23;;;3.80;;
67737;SDS011;54534;43.612;1.572;2022-12-29T15:36:18;13.73;;;4.87;;
67737;SDS011;54534;43.612;1.572;2022-12-29T15:38:44;7.40;;;3.60;;
67737;SDS011;54534;43.612;1.572;2022-12-29T15:44:28;8.20;;;3.97;;
67737;SDS011;54534;43.612;1.572;2022-12-29T15:47:03;7.33;;;4.10;;
67737;SDS011;54534;43.612;1.572;2022-12-29T15:49:30;9.87;;;4.00;;
67737;SDS011;54534;43.612;1.572;2022-12-29T15:51:56;11.50;;;4.97;;
67737;SDS011;54534;43.612;1.572;2022-12-29T15:54:22;7.70;;;4.70;;
67737;SDS011;54534;43.612;1.572;2022-12-29T15:56:49;10.53;;;3.67;;
67737;SDS011;54534;43.612;1.572;2022-12-29T16:01:58;9.40;;;4.23;;
67737;SDS011;54534;43.612;1.572;2022-12-29T16:04:26;7.47;;;3.33;;
67737;SDS011;54534;43.612;1.572;2022-12-29T16:06:57;8.37;;;3.60;;
67737;SDS011;54534;43.612;1.572;2022-12-29T16:09:43;8.57;;;3.97;;
67737;SDS011;54534;43.612;1.572;2022-12-29T16:12:16;5.67;;;4.60;;
67737;SDS011;54534;43.612;1.572;2022-12-29T16:17:12;8.50;;;3.80;;
67737;SDS011;54534;43.612;1.572;2022-12-29T16:19:40;8.27;;;3.73;;
67737;SDS011;54534;43.612;1.572;2022-12-29T16:22:17;9.63;;;3.57;;
67737;SDS011;54534;43.612;1.572;2022-12-29T16:24:50;9.00;;;4.30;;
67737;SDS011;54534;43.612;1.572;2022-12-29T16:27:21;8.10;;;3.55;;
67737;SDS011;54534;43.612;1.572;2022-12-29T16:29:51;8.67;;;3.57;;
67737;SDS011;54534;43.612;1.572;2022-12-29T16:32:22;8.52;;;4.18;;
67737;SDS011;54534;43.612;1.572;2022-12-29T16:37:41;8.10;;;3.53;;
67737;SDS011;54534;43.612;1.572;2022-12-29T16:42:48;5.83;;;3.43;;
67737;SDS011;54534;43.612;1.572;2022-12-29T16:48:28;7.83;;;3.50;;
67737;SDS011;54534;43.612;1.572;2022-12-29T16:50:48;8.70;;;3.63;;
67737;SDS011;54534;43.612;1.572;2022-12-29T16:53:21;9.37;;;3.93;;
67737;SDS011;54534;43.612;1.572;2022-12-29T16:55:51;8.13;;;3.63;;
67737;SDS011;54534;43.612;1.572;2022-12-29T16:58:19;8.63;;;4.43;;
67737;SDS011;54534;43.612;1.572;2022-12-29T17:00:52;5.47;;;3.63;;
67737;SDS011;54534;43.612;1.572;2022-12-29T17:03:20;6.47;;;3.70;;
67737;SDS011;54534;43.612;1.572;2022-12-29T17:05:47;5.50;;;3.80;;
67737;SDS011;54534;43.612;1.572;2022-12-29T17:08:20;7.73;;;3.83;;
67737;SDS011;54534;43.612;1.572;2022-12-29T17:10:51;7.77;;;3.70;;
67737;SDS011;54534;43.612;1.572;2022-12-29T17:13:39;7.63;;;4.00;;
67737;SDS011;54534;43.612;1.572;2022-12-29T17:16:07;5.10;;;3.83;;
67737;SDS011;54534;43.612;1.572;2022-12-29T17:18:35;9.60;;;4.40;;
67737;SDS011;54534;43.612;1.572;2022-12-29T17:21:01;8.47;;;4.50;;
67737;SDS011;54534;43.612;1.572;2022-12-29T17:23:27;7.70;;;4.20;;
67737;SDS011;54534;43.612;1.572;2022-12-29T17:25:55;8.00;;;3.80;;
67737;SDS011;54534;43.612;1.572;2022-12-29T17:28:22;7.40;;;3.67;;
67737;SDS011;54534;43.612;1.572;2022-12-29T17:30:55;11.03;;;4.90;;
67737;SDS011;54534;43.612;1.572;2022-12-29T17:33:24;8.10;;;4.30;;
67737;SDS011;54534;43.612;1.572;2022-12-29T17:35:50;8.30;;;4.00;;
67737;SDS011;54534;43.612;1.572;2022-12-29T17:38:19;9.73;;;5.30;;
67737;SDS011;54534;43.612;1.572;2022-12-29T17:40:48;11.53;;;5.60;;
67737;SDS011;54534;43.612;1.572;2022-12-29T17:43:14;9.57;;;5.33;;